CheckWX is a tool to help pilots better visualize weather data.  It is not intended as a substitute for an official pre-flight weather briefing.

02:47:20 UTC

KMKE METAR
General Mitchell International Airport
Milwaukee, Wisconsin, USA
Current

55 mins ago

KMKE 230152Z 30005KT 10SM FEW008 BKN049 OVC060 20/18 A2981 RMK AO2 SLP091 T02000183
Observed
Sep-23 @ 01:52 UTC
Wind
  • 300° at 5 KTS
Visibility
10 SM
Flight Rules
VFR
Cloud Levels
  • Few at 800' AGL
  • Broken at 4,900' AGL
  • Overcast at 6,000' AGL
Temperature
20°C / 68°F
Dewpoint
18°C / 64°F
Humidity
88%
Altimeter
29.81" Hg
Pressure
1009.52 hPa
Previous

2 hours ago

KMKE 230052Z 27004KT 10SM FEW020 SCT028 BKN034 21/18 A2980 RMK AO2 RAB28E44 SLP086 P0001 T02060183
Observed
Sep-23 @ 00:52 UTC
Wind
  • 270° at 4 KTS
Visibility
10 SM
Flight Rules
VFR
Cloud Levels
  • Few at 2,000' AGL
  • Scattered at 2,800' AGL
  • Broken at 3,400' AGL
Temperature
21°C / 70°F
Dewpoint
18°C / 64°F
Humidity
83%
Altimeter
29.8" Hg
Pressure
1009.12 hPa
Current Rain
0.01"
Previous

3 hours ago

KMKE 222352Z 26004KT 10SM SCT021 BKN030 OVC060 21/18 A2979 RMK AO2 RAE26 SLP083 P0000 60009 T02060183 10228 20206 56008
Observed
Sep-22 @ 23:52 UTC
Wind
  • 260° at 4 KTS
Visibility
10 SM
Flight Rules
MVFR
Cloud Levels
  • Scattered at 2,100' AGL
  • Broken at 3,000' AGL
  • Overcast at 6,000' AGL
Temperature
21°C / 70°F
Dewpoint
18°C / 64°F
Humidity
83%
Altimeter
29.79" Hg
Pressure
1008.82 hPa
Current Rain
0.01"